createdAt,value
2017-12-17T00:00:06.427Z,30.93
2017-12-17T00:02:35.414Z,31.10
2017-12-17T00:05:04.396Z,27.93
2017-12-17T00:07:32.497Z,29.83
2017-12-17T00:10:00.627Z,28.40
2017-12-17T00:12:28.708Z,33.63
2017-12-17T00:14:59.124Z,27.80
2017-12-17T00:17:27.195Z,29.60
2017-12-17T00:19:55.359Z,27.10
2017-12-17T00:22:23.441Z,32.17
2017-12-17T00:24:51.599Z,23.43
2017-12-17T00:27:19.690Z,29.60
2017-12-17T00:29:47.875Z,22.73
2017-12-17T00:32:17.677Z,16.97
2017-12-17T00:34:45.768Z,22.97
2017-12-17T00:37:13.885Z,20.37
2017-12-17T00:39:42.736Z,19.43
2017-12-17T00:42:11.612Z,23.80
2017-12-17T00:44:39.696Z,26.20
2017-12-17T00:47:08.603Z,23.43
2017-12-17T00:49:37.484Z,22.73
2017-12-17T00:52:06.360Z,22.20
2017-12-17T00:54:34.479Z,20.43
2017-12-17T00:57:02.592Z,23.23
2017-12-17T00:59:30.724Z,17.87
2017-12-17T01:01:58.832Z,15.83
2017-12-17T01:04:26.946Z,18.10
2017-12-17T01:06:55.048Z,20.23
2017-12-17T01:09:25.283Z,23.50
2017-12-17T01:11:53.400Z,19.90
2017-12-17T01:14:21.545Z,20.03
2017-12-17T01:19:42.631Z,25.43
2017-12-17T01:22:10.758Z,21.30
2017-12-17T01:24:38.949Z,22.90
2017-12-17T01:27:07.126Z,27.87
2017-12-17T01:29:35.223Z,26.80
2017-12-17T01:32:03.356Z,33.10
2017-12-17T01:34:31.477Z,29.50
2017-12-17T01:36:59.562Z,28.47
2017-12-17T01:39:27.820Z,38.97
2017-12-17T01:41:55.953Z,24.53
2017-12-17T01:44:24.037Z,31.10
2017-12-17T01:46:52.272Z,46.07
2017-12-17T01:49:20.388Z,39.60
2017-12-17T01:51:48.469Z,42.30
2017-12-17T01:57:07.756Z,49.07
2017-12-17T01:59:35.929Z,53.40
2017-12-17T02:02:04.081Z,47.47
2017-12-17T02:04:32.175Z,43.73
2017-12-17T02:07:00.293Z,49.13
2017-12-17T02:09:31.156Z,46.27
2017-12-17T02:11:59.256Z,45.40
2017-12-17T02:14:27.395Z,55.43
2017-12-17T02:16:55.525Z,53.93
2017-12-17T02:19:23.652Z,51.50
2017-12-17T02:21:51.822Z,45.20
2017-12-17T02:24:20.157Z,41.87
2017-12-17T02:26:48.316Z,87.67
2017-12-17T02:29:16.416Z,47.33
2017-12-17T02:31:44.533Z,49.30
2017-12-17T02:34:14.563Z,44.90
2017-12-17T02:36:43.521Z,57.20
2017-12-17T02:39:11.724Z,48.83
2017-12-17T02:41:40.640Z,56.63
2017-12-17T02:44:08.742Z,52.60
2017-12-17T02:46:36.891Z,69.53
2017-12-17T02:49:05.009Z,60.67
2017-12-17T02:51:33.268Z,53.83
2017-12-17T02:54:01.398Z,52.20
2017-12-17T02:56:29.606Z,57.10
2017-12-17T02:58:57.695Z,48.43
2017-12-17T03:01:25.845Z,48.10
2017-12-17T03:03:53.973Z,51.70
2017-12-17T03:06:22.186Z,49.87
2017-12-17T03:08:50.539Z,59.37
2017-12-17T03:11:19.389Z,57.00
2017-12-17T03:13:47.545Z,54.10
2017-12-17T03:16:15.637Z,46.60
2017-12-17T03:18:43.773Z,59.57
2017-12-17T03:21:11.877Z,66.57
2017-12-17T03:26:24.351Z,75.00
2017-12-17T03:28:52.638Z,62.70
2017-12-17T03:31:20.761Z,71.77
2017-12-17T03:33:48.997Z,52.10
2017-12-17T03:36:17.076Z,81.70
2017-12-17T03:38:46.090Z,79.13
2017-12-17T03:41:14.319Z,52.07
2017-12-17T03:43:43.201Z,67.53
2017-12-17T03:46:11.315Z,57.30
2017-12-17T03:48:39.424Z,58.13
2017-12-17T03:51:07.503Z,64.07
2017-12-17T03:53:35.640Z,57.30
2017-12-17T03:56:03.808Z,58.37
2017-12-17T03:58:31.919Z,46.13
2017-12-17T04:01:00.103Z,51.57
2017-12-17T04:03:29.034Z,49.63
2017-12-17T04:05:57.202Z,61.20
2017-12-17T04:08:30.624Z,41.30
2017-12-17T04:10:58.830Z,44.10
2017-12-17T04:13:27.836Z,50.70
2017-12-17T04:15:55.917Z,43.10
2017-12-17T04:18:24.033Z,45.93
2017-12-17T04:20:52.112Z,40.33
2017-12-17T04:23:20.255Z,40.93
2017-12-17T04:25:48.440Z,49.60
2017-12-17T04:28:16.535Z,36.20
2017-12-17T04:30:44.614Z,35.40
2017-12-17T04:33:14.585Z,35.50
2017-12-17T04:35:42.679Z,37.40
2017-12-17T04:38:10.783Z,30.83
2017-12-17T04:40:39.335Z,36.13
2017-12-17T04:43:07.419Z,34.57
2017-12-17T04:45:35.587Z,33.00
2017-12-17T04:48:03.676Z,38.03
2017-12-17T04:50:31.871Z,42.80
2017-12-17T04:52:59.976Z,40.17
2017-12-17T04:55:28.100Z,36.63
2017-12-17T04:57:56.354Z,44.37
2017-12-17T05:00:24.564Z,36.70
2017-12-17T05:02:52.650Z,44.90
2017-12-17T05:05:20.767Z,42.47
2017-12-17T05:07:48.924Z,41.97
2017-12-17T05:10:17.227Z,60.90
2017-12-17T05:12:45.316Z,53.70
2017-12-17T05:15:14.836Z,60.07
2017-12-17T05:17:43.026Z,46.23
2017-12-17T05:20:11.921Z,46.53
2017-12-17T05:22:40.807Z,46.47
2017-12-17T05:25:11.000Z,51.53
2017-12-17T05:27:39.198Z,48.27
2017-12-17T05:30:08.084Z,52.17
2017-12-17T05:32:36.961Z,57.40
2017-12-17T05:35:05.079Z,47.87
2017-12-17T05:37:33.169Z,53.00
2017-12-17T05:40:01.258Z,54.77
2017-12-17T05:42:29.486Z,68.97
2017-12-17T05:44:57.672Z,57.17
2017-12-17T05:47:25.805Z,60.73
2017-12-17T05:49:55.159Z,61.77
2017-12-17T05:52:23.307Z,51.43
2017-12-17T05:54:52.299Z,53.13
2017-12-17T06:00:11.573Z,55.07
2017-12-17T06:02:40.944Z,51.43
2017-12-17T06:05:09.051Z,53.97
2017-12-17T06:07:37.991Z,47.93
2017-12-17T06:10:06.086Z,59.83
2017-12-17T06:12:34.236Z,52.00
2017-12-17T06:15:02.319Z,48.27
2017-12-17T06:17:30.716Z,45.13
2017-12-17T06:19:59.025Z,54.13
2017-12-17T06:22:27.188Z,46.87
2017-12-17T06:24:56.044Z,65.57
2017-12-17T06:27:24.350Z,56.00
2017-12-17T06:29:52.544Z,51.43
2017-12-17T06:32:21.529Z,51.30
2017-12-17T06:34:50.392Z,59.13
2017-12-17T06:37:19.040Z,51.03
2017-12-17T06:39:49.676Z,53.83
2017-12-17T06:42:18.480Z,52.77
2017-12-17T06:44:48.720Z,49.63
2017-12-17T06:47:16.885Z,76.30
2017-12-17T06:49:44.969Z,60.73
2017-12-17T06:52:13.129Z,106.00
2017-12-17T06:54:41.239Z,61.63
2017-12-17T06:57:09.323Z,58.13
2017-12-17T06:59:37.550Z,135.23
2017-12-17T07:02:05.683Z,113.30
2017-12-17T07:04:33.838Z,89.53
2017-12-17T07:07:02.708Z,139.00
2017-12-17T07:09:30.833Z,174.13
2017-12-17T07:11:59.111Z,108.27
2017-12-17T07:14:30.527Z,117.97
2017-12-17T07:17:00.450Z,66.53
2017-12-17T07:19:28.616Z,64.33
2017-12-17T07:21:56.771Z,65.43
2017-12-17T07:24:24.983Z,62.33
2017-12-17T07:26:53.127Z,56.27
2017-12-17T07:29:21.305Z,62.20
2017-12-17T07:31:49.444Z,56.90
2017-12-17T07:34:17.656Z,65.97
2017-12-17T07:36:45.826Z,59.67
2017-12-17T07:39:14.948Z,67.33
2017-12-17T07:41:43.119Z,64.60
2017-12-17T07:44:12.220Z,65.00
2017-12-17T07:46:40.365Z,64.67
2017-12-17T07:49:09.210Z,61.03
2017-12-17T07:51:37.334Z,71.97
2017-12-17T07:54:06.362Z,61.40
2017-12-17T07:56:34.900Z,65.93
2017-12-17T07:59:03.128Z,79.30
2017-12-17T08:01:31.348Z,77.20
2017-12-17T08:04:00.343Z,74.20
2017-12-17T08:06:29.242Z,71.67
2017-12-17T08:08:58.121Z,77.80
2017-12-17T08:11:27.144Z,78.87
2017-12-17T08:13:55.286Z,79.13
2017-12-17T08:16:24.139Z,70.47
2017-12-17T08:18:52.349Z,73.97
2017-12-17T08:21:20.434Z,73.53
2017-12-17T08:23:49.331Z,88.63
2017-12-17T08:26:18.219Z,81.17
2017-12-17T08:28:47.098Z,85.37
2017-12-17T08:31:15.940Z,90.93
2017-12-17T08:33:44.540Z,89.07
2017-12-17T08:36:12.679Z,75.20
2017-12-17T08:38:40.771Z,77.23
2017-12-17T08:41:08.896Z,84.77
2017-12-17T08:43:37.012Z,83.83
2017-12-17T08:46:05.107Z,85.33
2017-12-17T08:48:33.222Z,92.93
2017-12-17T08:51:02.106Z,82.80
2017-12-17T08:53:30.228Z,82.80
2017-12-17T08:55:58.326Z,83.73
2017-12-17T08:58:26.491Z,85.37
2017-12-17T09:00:54.617Z,100.23
2017-12-17T09:03:25.372Z,92.57
2017-12-17T09:05:53.444Z,94.63
2017-12-17T09:08:22.343Z,99.77
2017-12-17T09:10:50.457Z,95.13
2017-12-17T09:13:18.535Z,91.17
2017-12-17T09:15:47.517Z,98.47
2017-12-17T09:18:15.708Z,95.93
2017-12-17T09:20:43.909Z,103.70
2017-12-17T09:23:16.897Z,99.47
2017-12-17T09:25:45.072Z,102.50
2017-12-17T09:28:13.196Z,84.53
2017-12-17T09:30:41.820Z,83.63
2017-12-17T09:33:10.772Z,99.43
2017-12-17T09:35:38.848Z,99.27
2017-12-17T09:38:06.984Z,87.40
2017-12-17T09:40:38.339Z,95.70
2017-12-17T09:43:07.099Z,93.50
2017-12-17T09:45:35.201Z,96.87
2017-12-17T09:48:03.341Z,98.90
2017-12-17T09:50:32.252Z,105.33
2017-12-17T09:53:00.600Z,92.23
2017-12-17T09:55:30.617Z,82.50
2017-12-17T09:57:59.061Z,87.20
2017-12-17T10:00:27.173Z,88.00
2017-12-17T10:02:55.304Z,97.33
2017-12-17T10:05:23.414Z,91.77
2017-12-17T10:07:52.335Z,81.73
2017-12-17T10:10:20.471Z,95.23
2017-12-17T10:12:49.372Z,89.63
2017-12-17T10:15:18.234Z,97.17
2017-12-17T10:17:47.013Z,88.73
2017-12-17T10:20:15.211Z,95.10
2017-12-17T10:22:43.286Z,78.77
2017-12-17T10:25:12.140Z,87.13
2017-12-17T10:27:40.351Z,76.30
2017-12-17T10:30:09.244Z,78.17
2017-12-17T10:32:37.522Z,81.43
2017-12-17T10:35:06.385Z,87.20
2017-12-17T10:37:34.610Z,77.93
2017-12-17T10:40:02.691Z,75.93
2017-12-17T10:42:30.823Z,86.93
2017-12-17T10:44:58.963Z,83.47
2017-12-17T10:47:27.056Z,83.60
2017-12-17T10:49:55.147Z,83.23
2017-12-17T10:52:23.321Z,85.70
2017-12-17T10:54:51.399Z,90.60
2017-12-17T10:57:19.712Z,104.37
2017-12-17T10:59:47.789Z,83.37
2017-12-17T11:02:16.344Z,97.40
2017-12-17T11:04:46.868Z,90.40
2017-12-17T11:07:17.267Z,109.33
2017-12-17T11:12:28.275Z,90.80
2017-12-17T11:14:56.439Z,86.73
2017-12-17T11:17:24.529Z,86.60
2017-12-17T11:19:53.796Z,79.27
2017-12-17T11:22:21.882Z,90.97
2017-12-17T11:24:49.986Z,72.43
2017-12-17T11:27:18.116Z,86.83
2017-12-17T11:29:46.280Z,79.93
2017-12-17T11:32:14.431Z,76.30
2017-12-17T11:34:42.674Z,80.80
2017-12-17T11:37:10.801Z,72.20
2017-12-17T11:39:39.000Z,83.93
2017-12-17T11:42:08.030Z,74.20
2017-12-17T11:44:36.165Z,80.23
2017-12-17T11:47:04.259Z,72.37
2017-12-17T11:49:33.261Z,71.77
2017-12-17T11:52:01.390Z,81.00
2017-12-17T11:54:29.827Z,90.97
2017-12-17T11:56:58.038Z,95.30
2017-12-17T11:59:26.104Z,82.40
2017-12-17T12:01:54.275Z,82.17
2017-12-17T12:04:22.368Z,74.80
2017-12-17T12:06:50.504Z,76.20
2017-12-17T12:09:18.633Z,71.57
2017-12-17T12:11:47.609Z,72.43
2017-12-17T12:14:15.776Z,62.23
2017-12-17T12:16:44.076Z,73.50
2017-12-17T12:19:12.963Z,69.83
2017-12-17T12:21:42.118Z,66.67
2017-12-17T12:24:10.864Z,68.23
2017-12-17T12:26:38.936Z,65.30
2017-12-17T12:29:07.153Z,58.67
2017-12-17T12:31:35.239Z,65.10
2017-12-17T12:34:03.329Z,66.40
2017-12-17T12:36:31.525Z,71.33
2017-12-17T12:39:00.395Z,66.97
2017-12-17T12:41:29.263Z,74.50
2017-12-17T12:43:57.343Z,65.43
2017-12-17T12:46:26.508Z,83.93
2017-12-17T12:48:54.780Z,66.57
2017-12-17T12:51:22.880Z,72.70
2017-12-17T12:53:50.996Z,59.63
2017-12-17T12:56:19.902Z,58.07
2017-12-17T12:58:48.020Z,59.80
2017-12-17T13:01:16.104Z,77.23
2017-12-17T13:03:44.308Z,59.20
2017-12-17T13:06:12.391Z,72.23
2017-12-17T13:08:41.577Z,60.30
2017-12-17T13:11:10.476Z,55.03
2017-12-17T13:13:39.383Z,59.80
2017-12-17T13:16:07.478Z,64.73
2017-12-17T13:18:35.653Z,57.97
2017-12-17T13:21:03.745Z,56.03
2017-12-17T13:23:31.887Z,60.20
2017-12-17T13:26:00.014Z,57.57
2017-12-17T13:28:28.998Z,80.27
2017-12-17T13:30:57.079Z,51.53
2017-12-17T13:33:25.169Z,54.87
2017-12-17T13:35:54.140Z,56.83
2017-12-17T13:38:22.228Z,52.80
2017-12-17T13:40:51.134Z,59.13
2017-12-17T13:43:20.523Z,65.07
2017-12-17T13:45:49.340Z,69.57
2017-12-17T13:48:17.587Z,63.33
2017-12-17T13:50:47.447Z,57.87
2017-12-17T13:53:15.536Z,67.73
2017-12-17T13:55:43.736Z,68.57
2017-12-17T13:58:11.845Z,71.27
2017-12-17T14:00:39.992Z,74.93
2017-12-17T14:03:08.841Z,76.47
2017-12-17T14:05:37.148Z,73.93
2017-12-17T14:08:05.231Z,65.70
2017-12-17T14:10:33.486Z,67.33
2017-12-17T14:13:01.924Z,77.70
2017-12-17T14:15:30.007Z,75.73
2017-12-17T14:17:58.139Z,81.97
2017-12-17T14:20:27.198Z,79.80
2017-12-17T14:22:55.423Z,82.10
2017-12-17T14:25:23.533Z,85.50
2017-12-17T14:27:51.652Z,76.50
2017-12-17T14:30:20.536Z,93.20
2017-12-17T14:32:48.644Z,73.03
2017-12-17T14:35:16.805Z,84.87
2017-12-17T14:37:44.945Z,71.70
2017-12-17T14:40:13.083Z,78.73
2017-12-17T14:42:41.204Z,67.67
2017-12-17T14:45:09.300Z,66.23
2017-12-17T14:47:37.516Z,71.90
2017-12-17T14:50:06.582Z,70.07
2017-12-17T14:52:35.141Z,71.50
2017-12-17T14:55:03.657Z,76.03
2017-12-17T14:57:32.788Z,87.47
2017-12-17T15:00:00.886Z,95.93
2017-12-17T15:02:29.867Z,81.07
2017-12-17T15:04:59.113Z,86.10
2017-12-17T15:07:27.351Z,80.13
2017-12-17T15:09:56.225Z,67.97
2017-12-17T15:12:24.960Z,74.37
2017-12-17T15:14:53.296Z,64.60
2017-12-17T15:17:21.384Z,73.07
2017-12-17T15:19:49.491Z,68.93
2017-12-17T15:22:17.636Z,65.23
2017-12-17T15:24:46.515Z,59.40
2017-12-17T15:27:14.649Z,66.33
2017-12-17T15:29:42.760Z,61.33
2017-12-17T15:32:12.640Z,72.97
2017-12-17T15:34:40.891Z,63.93
2017-12-17T15:37:19.110Z,66.13
2017-12-17T15:42:23.598Z,68.30
2017-12-17T15:44:52.526Z,64.63
2017-12-17T15:47:20.639Z,64.97
2017-12-17T15:49:48.745Z,75.60
2017-12-17T15:52:18.523Z,70.00
2017-12-17T15:54:46.609Z,74.20
2017-12-17T15:57:15.714Z,69.73
2017-12-17T15:59:43.805Z,65.23
2017-12-17T16:02:12.926Z,65.73
2017-12-17T16:04:41.028Z,73.90
2017-12-17T16:10:01.620Z,89.40
2017-12-17T16:17:46.224Z,73.40
2017-12-17T16:20:14.361Z,78.07
2017-12-17T16:22:43.366Z,76.53
2017-12-17T16:25:13.120Z,78.90
2017-12-17T16:27:41.302Z,88.73
2017-12-17T16:30:09.475Z,77.43
2017-12-17T16:32:37.668Z,78.43
2017-12-17T16:35:06.580Z,70.07
2017-12-17T16:37:34.712Z,72.60
2017-12-17T16:40:02.912Z,75.67
2017-12-17T16:42:31.896Z,67.90
2017-12-17T16:45:00.063Z,67.30
2017-12-17T16:47:28.224Z,74.70
2017-12-17T16:49:56.352Z,66.87
2017-12-17T16:52:24.487Z,69.70
2017-12-17T16:54:53.460Z,65.50
2017-12-17T16:57:21.639Z,64.60
2017-12-17T16:59:49.789Z,62.73
2017-12-17T17:02:17.906Z,70.83
2017-12-17T17:04:46.841Z,65.43
2017-12-17T17:07:14.934Z,68.10
2017-12-17T17:09:44.014Z,70.53
2017-12-17T17:12:12.105Z,62.83
2017-12-17T17:14:40.252Z,60.23
2017-12-17T17:17:08.357Z,58.03
2017-12-17T17:19:36.422Z,58.10
2017-12-17T17:22:04.674Z,65.40
2017-12-17T17:24:32.840Z,56.87
2017-12-17T17:27:00.949Z,62.50
2017-12-17T17:29:29.104Z,54.57
2017-12-17T17:31:57.215Z,65.13
2017-12-17T17:34:25.396Z,58.90
2017-12-17T17:36:54.305Z,50.37
2017-12-17T17:39:22.384Z,54.50
2017-12-17T17:41:50.747Z,58.80
2017-12-17T17:44:19.683Z,59.87
2017-12-17T17:46:47.799Z,57.00
2017-12-17T17:49:16.676Z,63.03
2017-12-17T17:51:44.808Z,57.50
2017-12-17T17:54:12.988Z,49.23
2017-12-17T17:56:41.144Z,56.43
2017-12-17T17:59:09.256Z,69.70
2017-12-17T18:01:37.445Z,75.20
2017-12-17T18:04:05.634Z,56.03
2017-12-17T18:06:33.768Z,58.33
2017-12-17T18:09:01.919Z,52.67
2017-12-17T18:11:30.099Z,63.70
2017-12-17T18:13:58.320Z,67.67
2017-12-17T18:16:26.460Z,70.83
2017-12-17T18:18:54.580Z,62.90
2017-12-17T18:21:23.442Z,68.10
2017-12-17T18:23:51.553Z,62.70
2017-12-17T18:26:20.495Z,66.53
2017-12-17T18:28:48.624Z,63.10
2017-12-17T18:31:16.761Z,63.37
2017-12-17T18:33:44.943Z,59.97
2017-12-17T18:36:13.025Z,69.53
2017-12-17T18:38:41.924Z,63.43
2017-12-17T18:41:10.140Z,67.50
2017-12-17T18:43:38.215Z,66.80
2017-12-17T18:46:06.392Z,68.57
2017-12-17T18:48:34.481Z,63.17
2017-12-17T18:51:02.640Z,70.03
2017-12-17T18:53:30.815Z,65.73
2017-12-17T18:55:58.967Z,94.00
2017-12-17T18:58:27.052Z,62.93
2017-12-17T19:00:55.273Z,71.13
2017-12-17T19:03:24.161Z,61.27
2017-12-17T19:05:52.449Z,56.40
2017-12-17T19:08:21.378Z,54.23
2017-12-17T19:10:50.179Z,61.93
2017-12-17T19:13:18.332Z,63.37
2017-12-17T19:15:46.627Z,61.27
2017-12-17T19:18:14.711Z,57.63
2017-12-17T19:20:42.869Z,53.73
2017-12-17T19:23:11.095Z,55.37
2017-12-17T19:25:39.183Z,49.23
2017-12-17T19:28:09.080Z,58.60
2017-12-17T19:30:37.255Z,63.97
2017-12-17T19:33:05.427Z,52.70
2017-12-17T19:35:33.568Z,56.27
2017-12-17T19:38:01.930Z,57.53
2017-12-17T19:40:30.028Z,64.03
2017-12-17T19:42:58.154Z,51.43
2017-12-17T19:45:26.246Z,52.73
2017-12-17T19:47:55.663Z,60.90
2017-12-17T19:50:23.746Z,55.07
2017-12-17T19:52:51.902Z,60.20
2017-12-17T19:55:20.028Z,67.33
2017-12-17T19:57:48.958Z,47.73
2017-12-17T20:00:17.064Z,48.43
2017-12-17T20:02:45.210Z,88.77
2017-12-17T20:05:13.358Z,62.07
2017-12-17T20:07:41.498Z,85.40
2017-12-17T20:10:09.632Z,58.63
2017-12-17T20:12:37.756Z,57.87
2017-12-17T20:15:05.898Z,46.67
2017-12-17T20:17:34.047Z,43.70
2017-12-17T20:20:02.145Z,50.17
2017-12-17T20:22:30.342Z,55.77
2017-12-17T20:24:58.512Z,54.90
2017-12-17T20:27:27.523Z,45.37
2017-12-17T20:29:56.891Z,48.27
2017-12-17T20:32:25.040Z,38.70
2017-12-17T20:34:53.149Z,47.67
2017-12-17T20:37:21.292Z,43.03
2017-12-17T20:39:49.418Z,41.37
2017-12-17T20:42:18.307Z,47.33
2017-12-17T20:44:46.424Z,44.57
2017-12-17T20:47:14.552Z,36.50
2017-12-17T20:49:43.452Z,44.00
2017-12-17T20:52:12.541Z,39.83
2017-12-17T20:54:40.778Z,42.07
2017-12-17T20:57:09.018Z,55.57
2017-12-17T20:59:37.157Z,35.77
2017-12-17T21:02:06.013Z,32.27
2017-12-17T21:04:34.159Z,33.47
2017-12-17T21:07:02.262Z,41.10
2017-12-17T21:09:31.288Z,33.93
2017-12-17T21:12:00.301Z,29.60
2017-12-17T21:14:28.420Z,34.13
2017-12-17T21:16:56.673Z,27.57
2017-12-17T21:19:24.777Z,44.07
2017-12-17T21:21:52.985Z,28.90
2017-12-17T21:24:22.475Z,28.30
2017-12-17T21:26:50.766Z,29.80
2017-12-17T21:29:18.842Z,31.33
2017-12-17T21:31:47.781Z,31.23
2017-12-17T21:34:15.936Z,30.23
2017-12-17T21:36:44.031Z,33.33
2017-12-17T21:39:12.158Z,30.73
2017-12-17T21:41:41.030Z,30.37
2017-12-17T21:44:10.616Z,25.70
2017-12-17T21:46:38.815Z,28.77
2017-12-17T21:49:06.978Z,38.03
2017-12-17T21:51:35.051Z,28.87
2017-12-17T21:54:03.151Z,26.03
2017-12-17T21:56:32.047Z,29.87
2017-12-17T21:59:00.134Z,23.00
2017-12-17T22:01:28.215Z,22.90
2017-12-17T22:03:57.480Z,25.13
2017-12-17T22:06:26.337Z,27.13
2017-12-17T22:08:54.520Z,26.90
2017-12-17T22:11:22.600Z,23.63
2017-12-17T22:13:50.783Z,26.67
2017-12-17T22:16:19.627Z,26.90
2017-12-17T22:18:47.765Z,18.50
2017-12-17T22:21:15.877Z,25.80
2017-12-17T22:23:43.974Z,17.30
2017-12-17T22:26:12.095Z,21.10
2017-12-17T22:28:40.232Z,21.77
2017-12-17T22:31:08.396Z,23.23
2017-12-17T22:33:36.514Z,20.63
2017-12-17T22:36:04.716Z,21.53
2017-12-17T22:38:32.822Z,26.77
2017-12-17T22:41:01.766Z,22.90
2017-12-17T22:43:29.857Z,19.40
2017-12-17T22:45:57.979Z,19.33
2017-12-17T22:48:26.955Z,27.53
2017-12-17T22:50:55.808Z,16.37
2017-12-17T22:53:23.887Z,21.17
2017-12-17T22:55:52.172Z,21.30
2017-12-17T22:58:20.339Z,16.17
2017-12-17T23:00:48.477Z,16.60
2017-12-17T23:03:16.628Z,16.73
2017-12-17T23:05:45.621Z,17.23
2017-12-17T23:08:13.695Z,17.47
2017-12-17T23:10:41.850Z,14.37
2017-12-17T23:13:10.026Z,14.27
2017-12-17T23:15:38.136Z,15.40
2017-12-17T23:18:06.247Z,17.17
2017-12-17T23:20:34.391Z,14.57
2017-12-17T23:23:02.504Z,13.93
2017-12-17T23:25:30.568Z,20.73
2017-12-17T23:27:58.710Z,15.10
2017-12-17T23:30:26.853Z,16.00
2017-12-17T23:32:55.770Z,18.93
2017-12-17T23:35:23.950Z,15.57
2017-12-17T23:37:52.075Z,19.67
2017-12-17T23:40:20.239Z,24.97
2017-12-17T23:42:48.320Z,18.80
2017-12-17T23:45:17.250Z,18.80
2017-12-17T23:47:45.371Z,15.90
2017-12-17T23:50:13.760Z,16.70
2017-12-17T23:52:41.865Z,19.47
2017-12-17T23:55:10.094Z,16.77
2017-12-17T23:57:38.279Z,25.80
